createdAt,value
2023-04-23T00:00:20.369Z,202.20
2023-04-23T00:00:54.914Z,206.80
2023-04-23T00:01:28.600Z,194.50
2023-04-23T00:02:02.941Z,198.90
2023-04-23T00:02:38.411Z,204.02
2023-04-23T00:03:21.844Z,221.23
2023-04-23T00:03:57.686Z,197.02
2023-04-23T00:04:36.492Z,206.20
2023-04-23T00:05:10.309Z,206.18
2023-04-23T00:05:44.584Z,185.00
2023-04-23T00:06:18.844Z,207.88
2023-04-23T00:06:52.662Z,203.63
2023-04-23T00:07:25.725Z,206.00
2023-04-23T00:08:01.134Z,215.13
2023-04-23T00:08:34.187Z,216.57
2023-04-23T00:09:07.723Z,208.32
2023-04-23T00:09:42.214Z,206.05
2023-04-23T00:10:15.136Z,201.80
2023-04-23T00:10:48.215Z,192.90
2023-04-23T00:11:22.102Z,218.32
2023-04-23T00:11:55.151Z,216.52
2023-04-23T00:12:28.885Z,206.27
2023-04-23T00:13:02.750Z,204.38
2023-04-23T00:13:36.326Z,191.15
2023-04-23T00:14:09.462Z,201.65
2023-04-23T00:14:44.938Z,199.93
2023-04-23T00:15:20.555Z,199.38
2023-04-23T00:15:53.601Z,192.63
2023-04-23T00:16:27.771Z,185.40
2023-04-23T00:17:00.566Z,193.00
2023-04-23T00:17:33.130Z,196.65
2023-04-23T00:18:06.945Z,199.00
2023-04-23T00:18:39.477Z,187.93
2023-04-23T00:19:11.989Z,189.60
2023-04-23T00:19:45.496Z,191.70
2023-04-23T00:20:18.106Z,197.65
2023-04-23T00:20:50.639Z,195.88
2023-04-23T00:21:24.159Z,188.65
2023-04-23T00:21:56.659Z,195.38
2023-04-23T00:22:29.133Z,184.90
2023-04-23T00:23:02.704Z,184.77
2023-04-23T00:23:35.235Z,195.00
2023-04-23T00:24:08.083Z,186.13
2023-04-23T00:24:41.847Z,186.02
2023-04-23T00:25:14.636Z,182.00
2023-04-23T00:25:47.207Z,187.02
2023-04-23T00:26:20.779Z,200.68
2023-04-23T00:26:53.685Z,176.55
2023-04-23T00:27:26.218Z,185.68
2023-04-23T00:28:00.066Z,180.43
2023-04-23T00:28:39.394Z,203.13
2023-04-23T00:29:17.581Z,169.52
2023-04-23T00:29:52.414Z,174.40
2023-04-23T00:30:25.021Z,191.43
2023-04-23T00:30:57.584Z,192.30
2023-04-23T00:31:31.230Z,182.20
2023-04-23T00:32:03.943Z,172.93
2023-04-23T00:32:36.618Z,179.65
2023-04-23T00:33:10.517Z,182.93
2023-04-23T00:33:43.110Z,174.50
2023-04-23T00:34:16.008Z,171.73
2023-04-23T00:34:49.279Z,189.15
2023-04-23T00:35:23.480Z,183.93
2023-04-23T00:35:55.997Z,188.23
2023-04-23T00:36:28.719Z,181.13
2023-04-23T00:37:05.885Z,184.15
2023-04-23T00:37:38.429Z,174.88
2023-04-23T00:38:10.925Z,178.60
2023-04-23T00:38:44.518Z,185.05
2023-04-23T00:39:16.999Z,172.93
2023-04-23T00:39:49.521Z,198.00
2023-04-23T00:40:23.591Z,185.63
2023-04-23T00:40:57.253Z,184.32
2023-04-23T00:41:29.822Z,179.55
2023-04-23T00:42:07.110Z,171.43
2023-04-23T00:42:41.580Z,168.13
2023-04-23T00:43:15.381Z,186.55
2023-04-23T00:43:49.232Z,173.82
2023-04-23T00:44:22.594Z,175.30
2023-04-23T00:44:57.071Z,167.23
2023-04-23T00:45:30.678Z,169.70
2023-04-23T00:46:03.798Z,172.93
2023-04-23T00:46:36.549Z,173.50
2023-04-23T00:47:10.612Z,182.50
2023-04-23T00:47:44.346Z,184.85
2023-04-23T00:48:17.443Z,179.75
2023-04-23T00:48:51.849Z,191.45
2023-04-23T00:49:25.255Z,177.65
2023-04-23T00:49:58.154Z,184.50
2023-04-23T00:50:30.749Z,184.38
2023-04-23T00:51:06.512Z,187.60
2023-04-23T00:51:39.053Z,180.25
2023-04-23T00:52:11.613Z,176.20
2023-04-23T00:52:45.154Z,178.60
2023-04-23T00:53:17.660Z,176.40
2023-04-23T00:53:50.285Z,179.13
2023-04-23T00:54:22.840Z,188.15
2023-04-23T00:54:56.502Z,194.18
2023-04-23T00:55:29.071Z,179.73
2023-04-23T00:56:04.203Z,176.68
2023-04-23T00:56:37.906Z,180.90
2023-04-23T00:57:10.687Z,177.38
2023-04-23T00:57:43.299Z,186.75
2023-04-23T00:58:16.812Z,185.95
2023-04-23T00:58:49.555Z,184.57
2023-04-23T00:59:22.091Z,179.15
2023-04-23T00:59:58.316Z,185.60
2023-04-23T01:00:31.969Z,184.93
2023-04-23T01:01:04.882Z,185.68
2023-04-23T01:01:37.822Z,192.38
2023-04-23T01:02:11.645Z,189.02
2023-04-23T01:02:45.090Z,190.38
2023-04-23T01:03:23.267Z,196.38
2023-04-23T01:03:57.680Z,189.93
2023-04-23T01:04:31.143Z,191.45
2023-04-23T01:05:06.692Z,176.90
2023-04-23T01:05:40.499Z,184.18
2023-04-23T01:06:13.057Z,188.02
2023-04-23T01:06:47.161Z,185.00
2023-04-23T01:07:19.872Z,195.77
2023-04-23T01:07:53.688Z,188.82
2023-04-23T01:08:26.313Z,203.07
2023-04-23T01:08:59.396Z,197.13
2023-04-23T01:09:32.549Z,192.25
2023-04-23T01:10:07.516Z,192.90
2023-04-23T01:10:40.110Z,177.18
2023-04-23T01:11:14.823Z,176.00
2023-04-23T01:11:49.880Z,187.23
2023-04-23T01:12:22.663Z,198.73
2023-04-23T01:12:56.568Z,196.52
2023-04-23T01:13:30.301Z,186.05
2023-04-23T01:14:03.864Z,207.88
2023-04-23T01:14:38.360Z,205.98
2023-04-23T01:15:13.800Z,195.57
2023-04-23T01:15:46.552Z,186.20
2023-04-23T01:16:19.284Z,198.10
2023-04-23T01:16:52.778Z,207.18
2023-04-23T01:17:26.826Z,208.73
2023-04-23T01:17:59.644Z,193.90
2023-04-23T01:18:32.457Z,202.63
2023-04-23T01:19:05.714Z,222.88
2023-04-23T01:19:39.357Z,224.77
2023-04-23T01:20:12.652Z,222.35
2023-04-23T01:20:45.161Z,204.73
2023-04-23T01:21:19.271Z,213.63
2023-04-23T01:21:53.048Z,210.32
2023-04-23T01:22:26.925Z,217.65
2023-04-23T01:23:00.490Z,214.05
2023-04-23T01:23:33.159Z,218.38
2023-04-23T01:24:06.265Z,217.35
2023-04-23T01:24:41.317Z,210.82
2023-04-23T01:25:14.287Z,212.48
2023-04-23T01:25:47.091Z,203.40
2023-04-23T01:26:20.590Z,206.23
2023-04-23T01:26:53.503Z,226.40
2023-04-23T01:27:26.094Z,218.93
2023-04-23T01:27:59.983Z,228.18
2023-04-23T01:28:33.407Z,233.98
2023-04-23T01:29:06.888Z,225.80
2023-04-23T01:29:40.686Z,215.07
2023-04-23T01:30:13.958Z,223.30
2023-04-23T01:30:47.699Z,222.27
2023-04-23T01:31:21.038Z,237.85
2023-04-23T01:31:54.776Z,229.50
2023-04-23T01:32:28.438Z,233.70
2023-04-23T01:33:01.572Z,213.95
2023-04-23T01:33:34.508Z,216.55
2023-04-23T01:34:08.072Z,236.32
2023-04-23T01:34:42.554Z,221.13
2023-04-23T01:35:15.490Z,231.98
2023-04-23T01:35:49.420Z,235.65
2023-04-23T01:36:23.545Z,249.68
2023-04-23T01:36:57.986Z,232.43
2023-04-23T01:37:33.461Z,244.57
2023-04-23T01:38:08.107Z,224.75
2023-04-23T01:38:41.044Z,251.43
2023-04-23T01:39:13.569Z,220.95
2023-04-23T01:39:47.029Z,237.82
2023-04-23T01:40:20.313Z,229.95
2023-04-23T01:40:52.954Z,236.88
2023-04-23T01:41:28.024Z,250.45
2023-04-23T01:42:01.670Z,234.48
2023-04-23T01:42:34.325Z,254.13
2023-04-23T01:43:09.357Z,255.23
2023-04-23T01:43:42.910Z,242.30
2023-04-23T01:44:15.564Z,233.55
2023-04-23T01:44:48.154Z,234.88
2023-04-23T01:45:21.940Z,259.50
2023-04-23T01:45:54.453Z,238.40
2023-04-23T01:46:27.191Z,247.77
2023-04-23T01:46:59.732Z,241.80
2023-04-23T01:47:33.311Z,241.60
2023-04-23T01:48:06.203Z,238.30
2023-04-23T01:48:39.232Z,254.20
2023-04-23T01:49:12.807Z,247.77
2023-04-23T01:49:45.659Z,239.90
2023-04-23T01:50:18.218Z,233.95
2023-04-23T01:50:52.837Z,246.18
2023-04-23T01:51:25.767Z,261.30
2023-04-23T01:51:58.336Z,238.98
2023-04-23T01:52:33.163Z,255.40
2023-04-23T01:53:05.692Z,253.18
2023-04-23T01:53:38.238Z,262.92
2023-04-23T01:54:11.763Z,246.15
2023-04-23T01:54:44.375Z,242.93
2023-04-23T01:55:19.013Z,253.20
2023-04-23T01:55:54.904Z,257.20
2023-04-23T01:56:30.552Z,250.48
2023-04-23T01:57:03.922Z,254.48
2023-04-23T01:57:37.511Z,274.10
2023-04-23T01:58:10.163Z,260.35
2023-04-23T01:58:42.637Z,265.13
2023-04-23T01:59:16.144Z,234.73
2023-04-23T01:59:48.671Z,250.25
2023-04-23T02:00:21.368Z,255.50
2023-04-23T02:00:54.935Z,254.55
2023-04-23T02:01:40.967Z,246.57
2023-04-23T02:02:15.183Z,251.02
2023-04-23T02:02:48.566Z,255.02
2023-04-23T02:03:22.729Z,231.00
2023-04-23T02:03:56.515Z,255.23
2023-04-23T02:04:31.632Z,255.77
2023-04-23T02:05:05.067Z,241.98
2023-04-23T02:05:39.540Z,259.15
2023-04-23T02:06:12.616Z,257.30
2023-04-23T02:06:48.483Z,270.05
2023-04-23T02:07:22.268Z,252.90
2023-04-23T02:07:56.206Z,250.20
2023-04-23T02:08:28.917Z,268.73
2023-04-23T02:09:02.538Z,270.38
2023-04-23T02:09:36.266Z,258.13
2023-04-23T02:10:10.085Z,264.15
2023-04-23T02:10:43.545Z,260.15
2023-04-23T02:11:16.136Z,239.95
2023-04-23T02:11:48.726Z,247.73
2023-04-23T02:12:22.749Z,251.68
2023-04-23T02:12:55.508Z,274.30
2023-04-23T02:13:28.007Z,269.77
2023-04-23T02:14:01.787Z,267.77
2023-04-23T02:14:34.327Z,262.95
2023-04-23T02:15:08.683Z,252.82
2023-04-23T02:15:43.212Z,255.32
2023-04-23T02:16:16.165Z,251.70
2023-04-23T02:16:49.662Z,265.40
2023-04-23T02:17:23.373Z,241.32
2023-04-23T02:17:57.145Z,238.65
2023-04-23T02:18:29.677Z,246.60
2023-04-23T02:19:02.306Z,259.70
2023-04-23T02:19:35.827Z,259.58
2023-04-23T02:20:09.778Z,249.52
2023-04-23T02:20:42.410Z,251.27
2023-04-23T02:21:14.875Z,234.05
2023-04-23T02:21:48.338Z,240.68
2023-04-23T02:22:22.111Z,236.85
2023-04-23T02:22:56.753Z,247.10
2023-04-23T02:23:30.253Z,241.82
2023-04-23T02:24:02.783Z,253.55
2023-04-23T02:24:36.529Z,240.00
2023-04-23T02:25:11.095Z,240.82
2023-04-23T02:25:43.749Z,249.57
2023-04-23T02:26:16.669Z,237.15
2023-04-23T02:26:50.160Z,247.20
2023-04-23T02:27:22.996Z,228.35
2023-04-23T02:27:57.403Z,244.32
2023-04-23T02:28:29.876Z,241.95
2023-04-23T02:29:03.447Z,243.30
2023-04-23T02:29:36.839Z,226.95
2023-04-23T02:30:11.414Z,220.43
2023-04-23T02:30:46.735Z,242.77
2023-04-23T02:31:20.643Z,231.75
2023-04-23T02:31:53.448Z,247.23
2023-04-23T02:32:28.106Z,237.88
2023-04-23T02:33:00.664Z,227.88
2023-04-23T02:33:33.287Z,216.85
2023-04-23T02:34:06.778Z,231.23
2023-04-23T02:34:39.433Z,227.82
2023-04-23T02:35:15.149Z,236.10
2023-04-23T02:35:48.752Z,226.98
2023-04-23T02:36:21.944Z,226.15
2023-04-23T02:36:54.484Z,225.98
2023-04-23T02:37:28.339Z,236.23
2023-04-23T02:38:02.264Z,239.48
2023-04-23T02:38:34.789Z,225.20
2023-04-23T02:39:08.377Z,242.20
2023-04-23T02:39:40.867Z,230.07
2023-04-23T02:40:14.173Z,229.48
2023-04-23T02:40:46.735Z,231.30
2023-04-23T02:41:20.200Z,220.85
2023-04-23T02:41:52.749Z,211.07
2023-04-23T02:42:25.396Z,224.00
2023-04-23T02:42:58.980Z,228.17
2023-04-23T02:43:31.452Z,229.07
2023-04-23T02:44:04.034Z,227.85
2023-04-23T02:44:37.725Z,213.90
2023-04-23T02:45:11.330Z,212.68
2023-04-23T02:45:44.793Z,227.40
2023-04-23T02:46:18.285Z,229.30
2023-04-23T02:46:50.919Z,246.13
2023-04-23T02:47:23.550Z,216.15
2023-04-23T02:47:57.980Z,213.55
2023-04-23T02:48:30.724Z,225.50
2023-04-23T02:49:03.306Z,221.18
2023-04-23T02:49:36.509Z,226.40
2023-04-23T02:50:10.340Z,223.18
2023-04-23T02:50:42.829Z,233.02
2023-04-23T02:51:15.494Z,228.00
2023-04-23T02:51:48.171Z,214.77
2023-04-23T02:52:22.496Z,207.40
2023-04-23T02:52:55.020Z,214.50
2023-04-23T02:53:29.012Z,219.35
2023-04-23T02:54:04.052Z,227.63
2023-04-23T02:54:37.100Z,214.65
2023-04-23T02:55:10.979Z,220.68
2023-04-23T02:55:44.493Z,209.35
2023-04-23T02:56:17.160Z,219.80
2023-04-23T02:56:49.743Z,211.65
2023-04-23T02:57:23.721Z,220.55
2023-04-23T02:57:56.695Z,214.85
2023-04-23T02:58:29.953Z,218.05
2023-04-23T02:59:07.259Z,219.50
2023-04-23T02:59:40.184Z,221.00
2023-04-23T03:00:14.933Z,218.27
2023-04-23T03:00:49.870Z,214.77
2023-04-23T03:01:22.562Z,222.07
2023-04-23T03:01:55.243Z,216.45
2023-04-23T03:02:29.020Z,215.40
2023-04-23T03:03:01.697Z,219.68
2023-04-23T03:03:34.923Z,206.15
2023-04-23T03:04:10.942Z,219.10
2023-04-23T03:04:43.658Z,212.13
2023-04-23T03:05:16.454Z,221.10
2023-04-23T03:05:50.113Z,227.15
2023-04-23T03:06:22.775Z,220.52
2023-04-23T03:06:55.601Z,218.98
2023-04-23T03:07:29.286Z,200.80
2023-04-23T03:08:01.878Z,212.00
2023-04-23T03:08:36.896Z,224.02
2023-04-23T03:09:09.498Z,213.63
2023-04-23T03:09:42.746Z,210.93
2023-04-23T03:10:16.254Z,210.27
2023-04-23T03:10:48.845Z,217.48
2023-04-23T03:11:22.631Z,214.38
2023-04-23T03:11:57.408Z,209.60
2023-04-23T03:12:30.021Z,205.60
2023-04-23T03:13:02.549Z,199.80
2023-04-23T03:13:36.241Z,211.40
2023-04-23T03:14:08.891Z,213.07
2023-04-23T03:14:41.980Z,221.10
2023-04-23T03:15:16.054Z,204.10
2023-04-23T03:15:49.243Z,205.30
2023-04-23T03:16:21.863Z,207.00
2023-04-23T03:16:55.555Z,211.40
2023-04-23T03:17:28.229Z,193.75
2023-04-23T03:18:01.517Z,197.63
2023-04-23T03:18:35.316Z,214.63
2023-04-23T03:19:08.745Z,205.70
2023-04-23T03:19:41.377Z,211.55
2023-04-23T03:20:15.495Z,205.98
2023-04-23T03:20:48.204Z,202.25
2023-04-23T03:21:21.398Z,192.20
2023-04-23T03:21:54.970Z,197.82
2023-04-23T03:22:27.485Z,193.23
2023-04-23T03:23:00.002Z,208.85
2023-04-23T03:23:34.038Z,207.38
2023-04-23T03:24:08.167Z,187.13
2023-04-23T03:24:40.859Z,201.48
2023-04-23T03:25:14.496Z,200.45
2023-04-23T03:25:47.057Z,191.00
2023-04-23T03:26:19.588Z,202.88
2023-04-23T03:26:53.072Z,190.32
2023-04-23T03:27:25.587Z,189.95
2023-04-23T03:27:58.105Z,193.02
2023-04-23T03:28:32.450Z,200.15
2023-04-23T03:29:06.263Z,193.65
2023-04-23T03:29:39.204Z,184.43
2023-04-23T03:30:13.278Z,192.63
2023-04-23T03:30:46.141Z,182.25
2023-04-23T03:31:21.921Z,185.68
2023-04-23T03:31:56.632Z,193.05
2023-04-23T03:32:29.259Z,197.07
2023-04-23T03:33:02.731Z,196.98
2023-04-23T03:33:37.115Z,187.25
2023-04-23T03:34:09.704Z,192.38
2023-04-23T03:34:43.778Z,179.20
2023-04-23T03:35:18.031Z,188.73
2023-04-23T03:35:53.128Z,184.05
2023-04-23T03:36:31.028Z,187.50
2023-04-23T03:37:03.591Z,171.68
2023-04-23T03:37:38.768Z,175.45
2023-04-23T03:38:12.701Z,187.82
2023-04-23T03:38:45.186Z,185.52
2023-04-23T03:39:19.148Z,186.80
2023-04-23T03:39:56.861Z,174.85
2023-04-23T03:40:29.543Z,184.00
2023-04-23T03:41:06.120Z,174.75
2023-04-23T03:41:39.667Z,183.02
2023-04-23T03:42:13.904Z,180.10
2023-04-23T03:42:46.431Z,176.88
2023-04-23T03:43:21.607Z,176.82
2023-04-23T03:44:21.602Z,175.60
2023-04-23T03:44:56.225Z,190.07
2023-04-23T03:45:30.616Z,185.52
2023-04-23T03:46:03.433Z,164.85
2023-04-23T03:46:40.118Z,179.98
2023-04-23T03:47:12.712Z,180.45
2023-04-23T03:47:45.417Z,176.05
2023-04-23T03:48:19.247Z,169.95
2023-04-23T03:48:51.923Z,164.77
2023-04-23T03:49:30.843Z,164.10
2023-04-23T03:50:04.950Z,164.88
2023-04-23T03:50:40.492Z,176.52
2023-04-23T03:51:34.354Z,169.65
2023-04-23T03:52:06.882Z,173.32
2023-04-23T03:52:43.293Z,163.88
2023-04-23T03:53:22.900Z,161.45
2023-04-23T03:54:19.674Z,168.07
2023-04-23T03:55:16.632Z,167.13
2023-04-23T03:55:51.370Z,167.52
2023-04-23T03:56:25.836Z,164.10
2023-04-23T03:57:16.296Z,167.90
2023-04-23T03:58:01.602Z,163.48
2023-04-23T03:58:42.359Z,160.15
2023-04-23T03:59:14.903Z,161.93
2023-04-23T03:59:48.707Z,154.80
2023-04-23T04:00:22.287Z,155.48
2023-04-23T04:00:54.845Z,164.63
2023-04-23T04:01:27.338Z,159.60
2023-04-23T04:02:01.216Z,160.27
2023-04-23T04:02:33.871Z,154.85
2023-04-23T04:03:06.624Z,164.63
2023-04-23T04:04:29.673Z,152.93
2023-04-23T04:05:03.248Z,160.10
2023-04-23T04:05:37.111Z,155.45
2023-04-23T04:06:10.177Z,150.50
2023-04-23T04:06:42.711Z,148.13
2023-04-23T04:07:15.322Z,160.77
2023-04-23T04:07:48.868Z,151.07
2023-04-23T04:08:23.027Z,144.98
2023-04-23T04:08:55.885Z,164.75
2023-04-23T04:09:34.000Z,153.50
2023-04-23T04:10:08.097Z,149.75
2023-04-23T04:10:41.925Z,147.05
2023-04-23T04:11:15.214Z,157.38
2023-04-23T04:11:47.853Z,161.10
2023-04-23T04:12:21.624Z,145.15
2023-04-23T04:12:55.349Z,159.77
2023-04-23T04:13:27.946Z,153.90
2023-04-23T04:14:00.561Z,143.50
2023-04-23T04:14:34.482Z,159.15
2023-04-23T04:15:08.187Z,150.30
2023-04-23T04:15:40.733Z,155.95
2023-04-23T04:16:14.182Z,153.50
2023-04-23T04:16:46.728Z,160.38
2023-04-23T04:17:19.284Z,153.93
2023-04-23T04:17:51.888Z,147.70
2023-04-23T04:18:25.642Z,159.93
2023-04-23T04:18:58.183Z,166.55
2023-04-23T04:19:30.724Z,152.32
2023-04-23T04:20:04.296Z,154.85
2023-04-23T04:20:36.839Z,157.32
2023-04-23T04:21:09.368Z,151.70
2023-04-23T04:21:42.837Z,151.90
2023-04-23T04:22:16.199Z,151.75
2023-04-23T04:22:48.772Z,148.63
2023-04-23T04:23:22.340Z,155.98
2023-04-23T04:23:55.724Z,154.68
2023-04-23T04:24:32.306Z,152.52
2023-04-23T04:25:07.004Z,149.88
2023-04-23T04:25:40.192Z,157.32
2023-04-23T04:26:13.162Z,151.13
2023-04-23T04:26:47.667Z,148.90
2023-04-23T04:27:20.757Z,148.57
2023-04-23T04:27:53.284Z,149.60
2023-04-23T04:28:26.822Z,151.30
2023-04-23T04:29:00.033Z,149.98
2023-04-23T04:29:33.627Z,146.73
2023-04-23T04:30:09.053Z,144.80
2023-04-23T04:30:42.518Z,156.52
2023-04-23T04:31:16.121Z,147.18
2023-04-23T04:31:49.820Z,154.93
2023-04-23T04:32:23.506Z,146.93
2023-04-23T04:32:58.685Z,153.70
2023-04-23T04:33:31.192Z,145.43
2023-04-23T04:34:04.100Z,145.73
2023-04-23T04:34:38.391Z,147.40
2023-04-23T04:35:12.786Z,148.85
2023-04-23T04:35:45.654Z,153.52
2023-04-23T04:36:19.337Z,150.95
2023-04-23T04:36:53.788Z,145.75
2023-04-23T04:37:26.494Z,144.63
2023-04-23T04:37:59.990Z,146.10
2023-04-23T04:38:32.464Z,150.88
2023-04-23T04:39:05.243Z,147.43
2023-04-23T04:39:40.097Z,145.68
2023-04-23T04:40:13.148Z,148.73
2023-04-23T04:40:45.719Z,150.30
2023-04-23T04:41:19.925Z,147.57
2023-04-23T04:41:52.467Z,156.15
2023-04-23T04:42:25.499Z,151.27
2023-04-23T04:43:00.133Z,160.48
2023-04-23T04:43:32.937Z,150.35
2023-04-23T04:44:07.274Z,146.75
2023-04-23T04:44:40.534Z,153.68
2023-04-23T04:45:13.292Z,152.13
2023-04-23T04:45:46.749Z,141.85
2023-04-23T04:46:20.799Z,151.00
2023-04-23T04:46:53.892Z,143.02
2023-04-23T04:47:27.834Z,151.10
2023-04-23T04:48:00.373Z,156.88
2023-04-23T04:48:32.924Z,146.85
2023-04-23T04:49:06.424Z,162.23
2023-04-23T04:49:38.952Z,141.93
2023-04-23T04:50:12.206Z,146.82
2023-04-23T04:50:46.513Z,148.27
2023-04-23T04:51:19.219Z,140.65
2023-04-23T04:51:51.812Z,142.30
2023-04-23T04:52:25.533Z,144.80
2023-04-23T04:52:58.122Z,137.43
2023-04-23T04:53:30.633Z,144.70
2023-04-23T04:54:03.233Z,144.52
2023-04-23T04:54:36.671Z,145.52
2023-04-23T04:55:10.910Z,144.07
2023-04-23T04:55:43.555Z,148.18
2023-04-23T04:56:17.105Z,149.25
2023-04-23T04:56:49.636Z,146.65
2023-04-23T04:57:22.945Z,151.25
2023-04-23T04:57:56.461Z,139.48
2023-04-23T04:58:28.976Z,148.60
2023-04-23T04:59:01.621Z,144.07
2023-04-23T04:59:35.150Z,139.65
2023-04-23T05:00:22.526Z,140.95
2023-04-23T05:00:55.903Z,147.20
2023-04-23T05:01:30.051Z,136.57
2023-04-23T05:02:02.794Z,137.48
2023-04-23T05:02:35.394Z,140.18
2023-04-23T05:03:08.401Z,141.57
2023-04-23T05:03:42.579Z,135.15
2023-04-23T05:04:19.142Z,133.93
2023-04-23T05:04:52.410Z,133.65
2023-04-23T05:05:27.204Z,136.32
2023-04-23T05:05:59.706Z,140.18
2023-04-23T05:06:32.432Z,134.85
2023-04-23T05:07:06.169Z,142.77
2023-04-23T05:07:38.743Z,138.70
2023-04-23T05:08:11.442Z,136.45
2023-04-23T05:08:48.137Z,141.93
2023-04-23T05:09:21.772Z,142.10
2023-04-23T05:09:54.384Z,140.98
2023-04-23T05:10:28.647Z,137.90
2023-04-23T05:11:04.850Z,134.27
2023-04-23T05:11:37.444Z,133.30
2023-04-23T05:12:09.921Z,135.98
2023-04-23T05:12:43.074Z,136.90
2023-04-23T05:13:19.020Z,130.95
2023-04-23T05:13:53.493Z,129.20
2023-04-23T05:14:26.713Z,126.28
2023-04-23T05:15:00.220Z,125.88
2023-04-23T05:15:32.933Z,131.27
2023-04-23T05:16:05.657Z,129.65
2023-04-23T05:16:39.191Z,137.02
2023-04-23T05:17:14.340Z,123.10
2023-04-23T05:17:47.176Z,129.15
2023-04-23T05:18:21.170Z,127.53
2023-04-23T05:18:53.724Z,133.45
2023-04-23T05:19:26.442Z,130.13
2023-04-23T05:19:59.899Z,134.32
2023-04-23T05:20:32.450Z,127.25
2023-04-23T05:21:09.370Z,127.18
2023-04-23T05:21:42.817Z,132.35
2023-04-23T05:22:15.735Z,128.57
2023-04-23T05:22:48.604Z,130.48
2023-04-23T05:23:22.127Z,134.63
2023-04-23T05:23:54.894Z,127.93
2023-04-23T05:24:27.390Z,123.88
2023-04-23T05:25:00.900Z,123.85
2023-04-23T05:25:35.704Z,133.05
2023-04-23T05:26:08.310Z,124.70
2023-04-23T05:26:41.788Z,126.70
2023-04-23T05:27:14.285Z,127.45
2023-04-23T05:27:46.889Z,126.18
2023-04-23T05:28:20.515Z,133.13
2023-04-23T05:28:53.010Z,127.45
2023-04-23T05:29:25.565Z,122.68
2023-04-23T05:29:59.487Z,128.00
2023-04-23T05:30:32.058Z,135.10
2023-04-23T05:31:05.593Z,125.03
2023-04-23T05:31:38.402Z,122.47
2023-04-23T05:32:11.001Z,122.05
2023-04-23T05:32:44.552Z,115.95
2023-04-23T05:33:17.333Z,127.10
2023-04-23T05:33:51.080Z,117.93
2023-04-23T05:34:23.671Z,121.10
2023-04-23T05:34:56.158Z,113.53
2023-04-23T05:35:29.700Z,119.78
2023-04-23T05:36:02.211Z,120.45
2023-04-23T05:36:37.329Z,116.20
2023-04-23T05:37:11.074Z,118.55
2023-04-23T05:37:43.596Z,115.25
2023-04-23T05:38:16.103Z,120.35
2023-04-23T05:38:49.699Z,118.50
2023-04-23T05:39:22.299Z,120.40
2023-04-23T05:39:54.924Z,117.40
2023-04-23T05:40:28.404Z,118.22
2023-04-23T05:41:02.413Z,110.20
2023-04-23T05:41:35.035Z,123.80
2023-04-23T05:42:08.722Z,115.45
2023-04-23T05:42:41.276Z,115.22
2023-04-23T05:43:13.778Z,120.40
2023-04-23T05:43:48.868Z,116.22
2023-04-23T05:44:21.532Z,121.07
2023-04-23T05:44:54.221Z,119.00
2023-04-23T05:45:27.767Z,110.75
2023-04-23T05:46:00.767Z,110.87
2023-04-23T05:46:33.418Z,116.15
2023-04-23T05:47:07.504Z,118.63
2023-04-23T05:47:40.032Z,118.22
2023-04-23T05:48:12.614Z,121.65
2023-04-23T05:48:46.038Z,115.30
2023-04-23T05:49:18.562Z,118.88
2023-04-23T05:49:51.027Z,105.57
2023-04-23T05:50:24.761Z,117.97
2023-04-23T05:50:57.393Z,116.55
2023-04-23T05:51:29.899Z,110.65
2023-04-23T05:52:03.979Z,111.30
2023-04-23T05:52:37.473Z,108.45
2023-04-23T05:53:13.580Z,112.13
2023-04-23T05:53:46.156Z,117.07
2023-04-23T05:54:18.943Z,114.30
2023-04-23T05:54:52.652Z,113.55
2023-04-23T05:55:25.308Z,108.70
2023-04-23T05:55:58.856Z,112.25
2023-04-23T05:56:32.741Z,105.20
2023-04-23T05:57:05.281Z,116.50
2023-04-23T05:57:39.573Z,116.72
2023-04-23T05:58:12.082Z,105.78
2023-04-23T05:58:45.583Z,110.32
2023-04-23T05:59:18.068Z,107.60
2023-04-23T05:59:50.569Z,120.03
2023-04-23T06:00:24.201Z,112.10
2023-04-23T06:00:57.631Z,112.35
2023-04-23T06:01:30.187Z,106.85
2023-04-23T06:02:04.440Z,112.85
2023-04-23T06:02:37.155Z,108.90
2023-04-23T06:03:11.015Z,114.90
2023-04-23T06:03:46.049Z,108.45
2023-04-23T06:04:19.122Z,107.55
2023-04-23T06:04:52.378Z,109.22
2023-04-23T06:05:26.407Z,109.80
2023-04-23T06:05:59.082Z,109.40
2023-04-23T06:06:32.016Z,103.65
2023-04-23T06:07:04.712Z,106.93
2023-04-23T06:07:38.220Z,109.50
2023-04-23T06:08:10.804Z,104.82
2023-04-23T06:08:43.297Z,107.75
2023-04-23T06:09:16.949Z,109.72
2023-04-23T06:09:49.623Z,108.85
2023-04-23T06:10:22.189Z,105.35
2023-04-23T06:10:56.219Z,111.15
2023-04-23T06:11:28.777Z,105.22
2023-04-23T06:12:03.341Z,102.78
2023-04-23T06:12:39.155Z,105.50
2023-04-23T06:13:11.745Z,106.47
2023-04-23T06:13:44.251Z,101.65
2023-04-23T06:14:17.804Z,97.68
2023-04-23T06:14:50.307Z,101.40
2023-04-23T06:15:26.889Z,102.47
2023-04-23T06:16:00.678Z,105.78
2023-04-23T06:16:33.238Z,102.22
2023-04-23T06:17:06.470Z,102.10
2023-04-23T06:17:40.107Z,101.60
2023-04-23T06:18:13.169Z,102.85
2023-04-23T06:18:45.800Z,98.82
2023-04-23T06:19:19.479Z,95.07
2023-04-23T06:19:52.136Z,98.50
2023-04-23T06:20:25.353Z,100.43
2023-04-23T06:21:04.200Z,101.63
2023-04-23T06:21:36.789Z,101.28
2023-04-23T06:22:09.589Z,101.28
2023-04-23T06:22:43.238Z,100.15
2023-04-23T06:23:15.767Z,103.32
2023-04-23T06:23:48.443Z,101.38
2023-04-23T06:24:22.040Z,105.00
2023-04-23T06:24:54.553Z,112.40
2023-04-23T06:25:27.112Z,108.82
2023-04-23T06:26:00.655Z,102.50
2023-04-23T06:26:33.350Z,103.60
2023-04-23T06:27:13.219Z,108.10
2023-04-23T06:27:50.717Z,107.07
2023-04-23T06:28:28.046Z,100.95
2023-04-23T06:29:24.489Z,102.95
2023-04-23T06:30:04.234Z,100.78
2023-04-23T06:30:36.733Z,100.22
2023-04-23T06:31:10.448Z,105.35
2023-04-23T06:31:43.104Z,101.57
2023-04-23T06:32:17.287Z,102.07
2023-04-23T06:32:52.669Z,102.68
2023-04-23T06:33:25.313Z,99.78
2023-04-23T06:33:58.106Z,98.30
2023-04-23T06:34:31.963Z,95.47
2023-04-23T06:35:05.122Z,98.68
2023-04-23T06:35:37.896Z,96.30
2023-04-23T06:36:11.765Z,98.43
2023-04-23T06:36:44.393Z,93.15
2023-04-23T06:37:17.033Z,94.90
2023-04-23T06:37:51.045Z,93.55
2023-04-23T06:38:23.836Z,91.78
2023-04-23T06:38:56.473Z,94.50
2023-04-23T06:39:30.122Z,92.30
2023-04-23T06:40:03.096Z,93.18
2023-04-23T06:40:38.123Z,90.45
2023-04-23T06:41:12.773Z,90.22
2023-04-23T06:41:45.348Z,91.70
2023-04-23T06:42:28.310Z,91.82
2023-04-23T06:43:21.922Z,92.07
2023-04-23T06:44:12.732Z,91.18
2023-04-23T06:44:49.173Z,89.97
2023-04-23T06:45:21.948Z,90.65
2023-04-23T06:45:56.426Z,87.28
2023-04-23T06:46:29.045Z,88.50
2023-04-23T06:47:01.771Z,88.95
2023-04-23T06:47:35.331Z,90.75
2023-04-23T06:48:07.947Z,90.13
2023-04-23T06:48:41.742Z,87.97
2023-04-23T06:49:14.305Z,88.80
2023-04-23T06:49:46.883Z,89.97
2023-04-23T06:50:20.897Z,87.60
2023-04-23T06:50:53.428Z,88.03
2023-04-23T06:51:26.432Z,88.03
2023-04-23T06:52:00.046Z,88.03
2023-04-23T06:52:32.609Z,87.22
2023-04-23T06:53:06.326Z,86.88
2023-04-23T06:53:38.910Z,87.70
2023-04-23T06:54:11.687Z,86.88
2023-04-23T06:54:45.328Z,86.35
2023-04-23T06:55:17.962Z,85.97
2023-04-23T06:55:51.330Z,85.60
2023-04-23T06:56:25.746Z,85.25
2023-04-23T06:56:58.592Z,86.38
2023-04-23T06:57:33.603Z,85.28
2023-04-23T06:58:08.391Z,84.97
2023-04-23T06:58:41.195Z,83.78
2023-04-23T06:59:24.687Z,83.43
2023-04-23T07:00:04.148Z,85.55
2023-04-23T07:00:42.786Z,85.00
2023-04-23T07:01:15.900Z,84.20
2023-04-23T07:01:49.859Z,85.53
2023-04-23T07:02:24.993Z,83.97
2023-04-23T07:02:57.808Z,82.07
2023-04-23T07:03:31.973Z,85.65
2023-04-23T07:04:04.621Z,85.10
2023-04-23T07:04:39.560Z,83.68